Time;durP1;ratioP1;P1;durP2;ratioP2;P2;SDS_P1;SDS_P2;PMS_P1;PMS_P2;Temp;Humidity;BMP_temperature;BMP_pressure;BME280_temperature;BME280_humidity;BME280_pressure;Samples;Min_cycle;Max_cycle;Signal;HPM_P1;HPM_P2
2021/04/10 00:02:13;;;;;;;22.70;10.23;;;;;;;3.40;72.57;101998.45;1755457;81;21703;-55
2021/04/10 00:04:41;;;;;;;23.00;10.30;;;;;;;3.37;72.93;101993.11;1755460;81;21127;-54
2021/04/10 00:07:10;;;;;;;17.05;8.28;;;;;;;3.32;73.12;101993.48;1755519;81;21183;-55
2021/04/10 00:09:37;;;;;;;18.37;9.58;;;;;;;3.30;72.91;101992.57;1729248;81;21194;-55
2021/04/10 00:12:06;;;;;;;16.97;8.90;;;;;;;3.30;73.17;101989.47;1736442;82;21116;-56
2021/04/10 00:14:34;;;;;;;21.52;9.20;;;;;;;3.33;73.40;101989.09;1760797;81;21202;-55
2021/04/10 00:17:04;;;;;;;18.60;8.70;;;;;;;3.35;73.62;101993.52;1760718;81;20950;-54
2021/04/10 00:19:33;;;;;;;18.52;9.98;;;;;;;3.35;73.53;101992.20;1794471;80;21127;-54
2021/04/10 00:22:01;;;;;;;16.82;8.55;;;;;;;3.36;73.78;101993.98;1774951;80;21151;-55
2021/04/10 00:24:29;;;;;;;17.48;8.60;;;;;;;3.38;73.97;101992.23;1763293;81;21186;-55
2021/04/10 00:26:56;;;;;;;16.30;8.35;;;;;;;3.42;73.71;101990.09;1774966;80;21356;-54
2021/04/10 00:29:25;;;;;;;23.07;9.38;;;;;;;3.47;73.23;101993.27;1763262;81;21560;-55
2021/04/10 00:31:54;;;;;;;21.20;9.88;;;;;;;3.48;72.99;101992.39;1774947;80;21084;-55
2021/04/10 00:34:23;;;;;;;22.90;8.85;;;;;;;3.51;73.26;101997.73;1763400;81;21070;-55
2021/04/10 00:36:51;;;;;;;20.43;9.40;;;;;;;3.54;73.67;101997.78;1775027;80;21118;-55
2021/04/10 00:39:18;;;;;;;20.92;9.65;;;;;;;3.58;73.59;101995.62;1763314;81;21549;-55
2021/04/10 00:41:46;;;;;;;20.12;10.43;;;;;;;3.59;73.55;101990.77;1774940;80;21071;-54
2021/04/10 00:44:14;;;;;;;17.60;9.05;;;;;;;3.60;73.47;101996.53;1763299;81;21062;-55
2021/04/10 00:46:41;;;;;;;18.70;8.88;;;;;;;3.59;73.28;101994.75;1763331;81;21101;-55
2021/04/10 00:49:09;;;;;;;16.30;8.43;;;;;;;3.58;73.06;101986.34;1763535;81;22346;-55
2021/04/10 00:51:36;;;;;;;19.07;9.05;;;;;;;3.54;72.36;101997.78;1763535;81;21533;-54
2021/04/10 00:54:04;;;;;;;20.68;8.73;;;;;;;3.50;71.88;101990.66;1763408;81;21156;-54
2021/04/10 00:56:32;;;;;;;21.62;9.95;;;;;;;3.41;71.57;101993.61;1714414;81;21162;-54
2021/04/10 00:58:59;;;;;;;19.80;9.68;;;;;;;3.33;71.72;101991.28;1798167;79;21152;-54
2021/04/10 01:01:29;;;;;;;21.33;8.88;;;;;;;3.28;72.01;101991.20;1767000;81;21161;-54
2021/04/10 01:03:59;;;;;;;29.40;9.70;;;;;;;3.25;72.11;101996.47;1798209;79;21384;-55
2021/04/10 01:06:27;;;;;;;20.30;9.95;;;;;;;3.23;72.22;102002.63;1798489;79;21514;-54
2021/04/10 01:08:56;;;;;;;24.15;9.60;;;;;;;3.19;72.38;101994.15;1798393;79;21074;-54
2021/04/10 01:11:52;;;;;;;18.70;9.68;;;;;;;3.12;72.54;101995.39;1791934;79;21047;-54
2021/04/10 01:14:48;;;;;;;17.20;8.20;;;;;;;3.08;72.20;101999.28;1789565;80;21094;-55
2021/04/10 01:17:28;;;;;;;14.95;8.03;;;;;;;3.05;72.45;101996.58;1786978;80;21253;-55
2021/04/10 01:20:42;;;;;;;20.85;8.25;;;;;;;3.09;72.60;101998.41;1777470;80;22409;-54
2021/04/10 01:23:42;;;;;;;24.77;9.70;;;;;;;3.12;72.43;101994.06;1777318;80;21110;-54
2021/04/10 01:26:40;;;;;;;18.25;8.50;;;;;;;3.15;72.03;101995.43;1766849;80;21174;-54
2021/04/10 01:29:12;;;;;;;19.42;9.10;;;;;;;3.14;72.11;101997.62;1730689;80;21126;-54
2021/04/10 01:31:49;;;;;;;20.02;8.55;;;;;;;3.13;71.62;101998.94;1754766;81;21147;-54
2021/04/10 01:34:20;;;;;;;20.32;8.80;;;;;;;3.07;71.24;101999.73;1771286;81;21087;-55
2021/04/10 01:36:49;;;;;;;20.50;8.40;;;;;;;3.01;71.41;101992.56;1754736;81;21141;-54
2021/04/10 01:39:17;;;;;;;22.60;8.65;;;;;;;2.98;71.75;101993.84;1771315;81;21079;-55
2021/04/10 01:41:49;;;;;;;25.75;9.40;;;;;;;2.98;71.95;101991.61;1754712;81;21081;-55
2021/04/10 01:44:18;;;;;;;30.32;10.80;;;;;;;2.98;71.51;101998.23;1771365;81;21370;-56
2021/04/10 01:46:46;;;;;;;40.85;10.00;;;;;;;2.93;71.25;101992.87;1754668;81;21094;-55
2021/04/10 01:49:14;;;;;;;28.47;9.38;;;;;;;2.89;71.27;101995.02;1771338;81;21507;-56
2021/04/10 01:51:42;;;;;;;30.90;9.38;;;;;;;2.90;71.30;101987.95;1754766;81;21073;-54
2021/04/10 01:54:10;;;;;;;22.32;9.00;;;;;;;2.92;71.61;101989.77;1743169;81;21139;-55
2021/04/10 01:56:42;;;;;;;22.48;8.13;;;;;;;2.99;71.97;101990.77;1756026;81;21399;-54
2021/04/10 01:59:15;;;;;;;17.62;7.87;;;;;;;3.05;71.91;101986.89;1751470;80;21157;-55
2021/04/10 02:01:48;;;;;;;18.25;7.45;;;;;;;3.12;71.64;101988.76;1780260;80;21175;-55
2021/04/10 02:04:16;;;;;;;21.00;9.00;;;;;;;3.18;71.13;101997.25;1780941;80;21478;-55
2021/04/10 02:06:45;;;;;;;26.65;9.10;;;;;;;3.20;70.57;101990.63;1780876;80;21050;-54
2021/04/10 02:09:14;;;;;;;16.52;7.67;;;;;;;3.15;70.30;101993.23;1780805;80;21415;-55
2021/04/10 02:11:48;;;;;;;19.77;7.20;;;;;;;3.14;70.10;101987.47;1787367;80;21183;-54
2021/04/10 02:14:19;;;;;;;20.32;7.30;;;;;;;3.15;69.87;101994.11;1789510;80;21145;-55
2021/04/10 02:16:49;;;;;;;16.40;7.72;;;;;;;3.24;69.67;101996.47;1764735;80;21098;-55
2021/04/10 02:19:19;;;;;;;20.07;8.27;;;;;;;3.27;69.47;101991.20;1762245;80;21145;-54
2021/04/10 02:21:48;;;;;;;27.58;8.63;;;;;;;3.28;69.37;101990.34;1758067;81;21560;-54
2021/04/10 02:24:16;;;;;;;19.50;7.85;;;;;;;3.25;69.80;101990.29;1759033;81;21078;-54
2021/04/10 02:26:46;;;;;;;22.85;10.88;;;;;;;3.24;69.31;101988.51;1757962;81;21090;-54
2021/04/10 02:29:16;;;;;;;18.52;8.48;;;;;;;3.25;69.61;101990.29;1758696;81;21205;-55
2021/04/10 02:31:52;;;;;;;18.98;8.75;;;;;;;3.20;69.82;101998.16;1759049;81;21114;-56
2021/04/10 02:34:25;;;;;;;21.55;8.88;;;;;;;3.17;69.96;101999.86;1756539;81;21457;-55
2021/04/10 02:36:55;;;;;;;14.30;7.47;;;;;;;3.13;69.89;101993.19;1758948;81;21086;-55
2021/04/10 02:39:23;;;;;;;16.20;7.53;;;;;;;3.12;69.97;101991.41;1759103;81;21478;-55
2021/04/10 02:41:52;;;;;;;16.05;7.92;;;;;;;3.13;70.13;101985.23;1759151;81;21446;-55
2021/04/10 02:44:24;;;;;;;17.60;7.17;;;;;;;3.19;70.21;101995.47;1759046;81;21137;-55
2021/04/10 02:46:52;;;;;;;15.55;7.53;;;;;;;3.20;69.78;101986.66;1759022;81;21537;-56
2021/04/10 02:49:29;;;;;;;12.68;6.47;;;;;;;3.17;69.57;101990.59;1759026;81;21597;-55
2021/04/10 02:51:59;;;;;;;11.93;6.20;;;;;;;3.18;69.81;101988.39;1759133;81;21078;-55
2021/04/10 02:54:31;;;;;;;11.53;6.35;;;;;;;3.22;69.71;101983.63;1733307;81;21534;-55
2021/04/10 02:57:07;;;;;;;17.35;8.28;;;;;;;3.30;69.52;101979.31;1747533;80;21126;-54
2021/04/10 02:59:38;;;;;;;17.05;8.10;;;;;;;3.37;69.25;101987.81;1788693;80;22062;-54
2021/04/10 03:02:07;;;;;;;18.07;6.75;;;;;;;3.39;68.58;101983.41;1748551;81;21184;-54
2021/04/10 03:04:35;;;;;;;20.32;8.20;;;;;;;3.35;68.23;101986.02;1745334;81;21210;-53
2021/04/10 03:07:05;;;;;;;14.23;7.00;;;;;;;3.32;68.12;101988.63;1757343;81;21137;-54
2021/04/10 03:09:36;;;;;;;15.95;7.05;;;;;;;3.30;68.00;101995.22;1768698;81;21123;-55
2021/04/10 03:12:06;;;;;;;14.03;5.95;;;;;;;3.27;67.88;101991.20;1757272;81;21436;-55
2021/04/10 03:14:34;;;;;;;16.55;6.83;;;;;;;3.27;67.50;101987.23;1768639;81;21101;-55
2021/04/10 03:17:04;;;;;;;14.55;6.70;;;;;;;3.32;67.00;101988.63;1757351;81;21506;-55
2021/04/10 03:19:32;;;;;;;24.12;7.45;;;;;;;3.37;66.86;101994.44;1755329;81;21121;-55
2021/04/10 03:22:00;;;;;;;20.10;7.53;;;;;;;3.40;66.76;101993.15;1742309;81;21128;-54
2021/04/10 03:24:27;;;;;;;16.93;7.65;;;;;;;3.35;66.77;101993.52;1755383;81;22312;-54
2021/04/10 03:26:57;;;;;;;19.07;8.08;;;;;;;3.32;66.71;102000.56;1765470;81;21092;-55
2021/04/10 03:29:27;;;;;;;26.40;10.03;;;;;;;3.30;66.51;101999.20;1752858;81;21203;-54
2021/04/10 03:31:56;;;;;;;20.68;8.13;;;;;;;3.30;66.03;101999.20;1764008;80;21164;-54
2021/04/10 03:34:24;;;;;;;19.30;7.83;;;;;;;3.34;65.75;102007.65;1765562;81;21532;-55
2021/04/10 03:36:52;;;;;;;16.07;8.38;;;;;;;3.40;65.61;102002.43;1765556;81;21189;-54
2021/04/10 03:39:21;;;;;;;20.77;8.30;;;;;;;3.51;65.17;102000.39;1787817;80;21119;-55
2021/04/10 03:41:50;;;;;;;19.70;8.50;;;;;;;3.59;65.12;102001.38;1787363;80;21167;-55
2021/04/10 03:44:18;;;;;;;25.45;9.90;;;;;;;3.60;64.97;101997.86;1788015;80;21167;-54
2021/04/10 03:46:46;;;;;;;25.05;9.03;;;;;;;3.59;64.87;102002.70;1787979;80;21071;-55
2021/04/10 03:49:14;;;;;;;21.37;9.43;;;;;;;3.56;65.00;102011.95;1787866;80;21387;-54
2021/04/10 03:51:42;;;;;;;20.15;9.68;;;;;;;3.51;65.25;102008.34;1787976;80;21001;-55
2021/04/10 03:54:10;;;;;;;21.95;9.50;;;;;;;3.49;65.44;102011.41;1787946;80;21131;-54
2021/04/10 03:56:39;;;;;;;21.90;8.60;;;;;;;3.51;65.93;102009.22;1788155;80;21139;-54
2021/04/10 03:59:21;;;;;;;21.57;8.63;;;;;;;3.65;65.42;102009.45;1788455;80;21169;-55
2021/04/10 04:01:53;;;;;;;25.20;9.30;;;;;;;3.87;65.17;102008.41;1757319;81;21925;-55
2021/04/10 04:04:23;;;;;;;30.45;11.12;;;;;;;4.08;63.88;102013.50;1768593;81;21083;-55
2021/04/10 04:06:51;;;;;;;32.30;11.57;;;;;;;4.28;63.48;102012.44;1757343;81;21114;-55
2021/04/10 04:09:18;;;;;;;21.70;10.18;;;;;;;4.40;63.93;102013.01;1768751;80;21159;-54
2021/04/10 04:11:47;;;;;;;24.45;10.43;;;;;;;4.40;64.30;102005.05;1757367;81;21062;-54
2021/04/10 04:14:15;;;;;;;25.40;10.00;;;;;;;4.44;63.69;102012.16;1768808;81;22384;-54
2021/04/10 04:16:42;;;;;;;35.10;12.15;;;;;;;4.56;63.21;102013.63;1757385;81;21539;-55
2021/04/10 04:19:10;;;;;;;34.15;12.40;;;;;;;4.68;63.50;102016.85;1770132;81;21157;-54
2021/04/10 04:21:38;;;;;;;35.25;12.35;;;;;;;4.73;64.02;102012.47;1790281;80;21129;-55
2021/04/10 04:24:07;;;;;;;31.25;11.22;;;;;;;4.77;64.27;102010.73;1790438;80;21113;-56
2021/04/10 04:26:35;;;;;;;34.90;12.20;;;;;;;4.78;64.14;102011.19;1790392;80;21335;-55
2021/04/10 04:29:03;;;;;;;41.90;13.30;;;;;;;4.85;63.80;102011.69;1790261;80;21085;-55
2021/04/10 04:31:30;;;;;;;52.67;14.83;;;;;;;4.97;63.95;102016.22;1790385;80;21104;-55
2021/04/10 04:33:58;;;;;;;54.13;16.15;;;;;;;5.04;64.17;102015.84;1790339;80;21137;-55
2021/04/10 04:36:26;;;;;;;37.05;14.75;;;;;;;5.05;64.61;102020.70;1790432;80;21070;-55
2021/04/10 04:38:54;;;;;;;35.50;13.18;;;;;;;5.05;64.67;102017.63;1790341;80;21740;-56
2021/04/10 04:41:22;;;;;;;35.17;12.65;;;;;;;5.09;63.80;102019.42;1790361;80;21086;-56
2021/04/10 04:43:50;;;;;;;36.90;14.33;;;;;;;5.18;64.03;102025.67;1790371;80;21116;-55
2021/04/10 04:46:18;;;;;;;43.75;14.73;;;;;;;5.28;63.78;102031.08;1790345;80;21172;-56
2021/04/10 04:48:45;;;;;;;27.45;12.10;;;;;;;5.36;63.38;102035.59;1790351;80;21066;-56
2021/04/10 04:51:13;;;;;;;26.25;12.13;;;;;;;5.45;62.47;102027.23;1790378;80;21412;-56
2021/04/10 04:53:40;;;;;;;25.20;12.35;;;;;;;5.60;61.45;102036.17;1790248;80;21109;-55
2021/04/10 04:56:09;;;;;;;37.70;13.85;;;;;;;5.73;61.48;102030.06;1785681;80;21202;-55
2021/04/10 04:58:36;;;;;;;30.82;14.30;;;;;;;5.85;61.43;102040.31;1757457;81;21061;-56
2021/04/10 05:01:04;;;;;;;30.52;13.88;;;;;;;5.95;61.10;102038.16;1768882;81;21059;-55
2021/04/10 05:03:31;;;;;;;32.30;14.25;;;;;;;6.02;60.56;102034.67;1757395;81;21720;-56
2021/04/10 05:05:59;;;;;;;30.23;15.60;;;;;;;6.11;60.81;102036.48;1768798;80;21123;-55
2021/04/10 05:08:27;;;;;;;32.70;15.03;;;;;;;6.21;60.91;102044.53;1757470;81;21054;-55
2021/04/10 05:10:54;;;;;;;34.63;16.62;;;;;;;6.32;60.37;102036.58;1768798;81;21100;-55
2021/04/10 05:13:23;;;;;;;41.85;19.05;;;;;;;6.46;60.30;102048.16;1756648;81;21062;-55
2021/04/10 05:15:50;;;;;;;33.42;19.57;;;;;;;6.64;59.49;102031.77;1756819;81;21456;-55
2021/04/10 05:18:18;;;;;;;29.20;15.95;;;;;;;6.85;56.50;102030.47;1773981;80;21195;-55
2021/04/10 05:20:47;;;;;;;33.13;14.83;;;;;;;7.05;56.39;102036.27;1792509;80;21109;-55
2021/04/10 05:23:23;;;;;;;27.02;12.82;;;;;;;7.29;55.58;102035.81;1778062;80;21155;-56
2021/04/10 05:25:51;;;;;;;27.95;12.60;;;;;;;7.53;55.28;102027.34;1787039;80;21127;-55
2021/04/10 05:28:21;;;;;;;29.50;13.38;;;;;;;7.68;54.12;102031.31;1786924;80;21199;-55
2021/04/10 05:30:49;;;;;;;26.10;12.95;;;;;;;7.82;53.09;102037.05;1786872;80;21186;-55
2021/04/10 05:33:17;;;;;;;29.15;13.78;;;;;;;7.97;53.60;102035.67;1786989;80;21060;-54
2021/04/10 05:35:44;;;;;;;29.00;14.73;;;;;;;8.13;53.78;102032.48;1792587;80;21057;-55
2021/04/10 05:38:12;;;;;;;36.77;16.23;;;;;;;8.27;53.68;102035.56;1778129;80;21103;-55
2021/04/10 05:40:40;;;;;;;33.50;16.37;;;;;;;8.43;53.95;102028.34;1792595;80;21378;-56
2021/04/10 05:43:09;;;;;;;40.28;17.55;;;;;;;8.65;54.03;102032.27;1778205;80;21343;-55
2021/04/10 05:45:39;;;;;;;38.03;18.40;;;;;;;8.98;53.49;102028.92;1792661;79;21596;-55
2021/04/10 05:48:08;;;;;;;41.92;16.85;;;;;;;9.36;51.85;102037.05;1778107;80;21092;-55
2021/04/10 05:50:38;;;;;;;31.23;16.15;;;;;;;9.56;49.71;102039.98;1792165;80;21161;-55
2021/04/10 05:53:06;;;;;;;37.35;16.82;;;;;;;9.61;49.55;102044.84;1778168;80;21668;-55
2021/04/10 05:55:33;;;;;;;47.17;17.25;;;;;;;9.64;49.50;102043.50;1792529;80;21050;-54
2021/04/10 05:58:01;;;;;;;40.50;17.25;;;;;;;9.65;50.38;102041.25;1776538;80;21127;-55
2021/04/10 06:00:28;;;;;;;37.90;16.25;;;;;;;9.63;50.74;102044.41;1759608;81;21034;-55
2021/04/10 06:02:56;;;;;;;38.60;15.32;;;;;;;9.65;50.04;102049.29;1776425;80;21051;-56
2021/04/10 06:05:26;;;;;;;32.95;14.45;;;;;;;9.79;49.25;102046.89;1759675;81;21199;-54
2021/04/10 06:07:54;;;;;;;28.62;14.90;;;;;;;10.11;48.57;102049.20;1776410;80;21087;-55
2021/04/10 06:10:21;;;;;;;28.27;14.25;;;;;;;10.60;47.87;102049.05;1759574;81;21134;-55
2021/04/10 06:12:49;;;;;;;31.65;14.00;;;;;;;10.96;46.32;102051.67;1776294;80;21130;-55
2021/04/10 06:15:19;;;;;;;29.72;14.65;;;;;;;11.05;45.79;102051.51;1759665;81;21085;-55
2021/04/10 06:17:47;;;;;;;30.92;13.18;;;;;;;11.11;45.91;102051.40;1775781;80;21395;-55
2021/04/10 06:20:16;;;;;;;33.78;14.47;;;;;;;11.07;44.71;102047.00;1756711;81;21199;-56
2021/04/10 06:22:44;;;;;;;28.55;14.25;;;;;;;11.00;46.20;102046.68;1776724;80;21127;-55
2021/04/10 06:25:12;;;;;;;42.48;14.80;;;;;;;10.99;45.74;102040.88;1776691;80;21139;-54
2021/04/10 06:27:39;;;;;;;30.68;15.45;;;;;;;10.92;46.07;102045.89;1756636;81;21604;-55
2021/04/10 06:30:08;;;;;;;35.50;15.20;;;;;;;10.94;46.77;102046.75;1770778;81;21533;-55
2021/04/10 06:32:36;;;;;;;34.88;17.23;;;;;;;11.03;47.23;102046.63;1756576;81;21058;-56
2021/04/10 06:35:06;;;;;;;36.38;16.42;;;;;;;11.10;47.75;102052.31;1776733;80;21082;-55
2021/04/10 06:37:35;;;;;;;31.10;17.23;;;;;;;11.15;47.73;102053.12;1776676;80;21076;-55
2021/04/10 06:40:07;;;;;;;28.07;16.42;;;;;;;11.16;48.08;102049.55;1756590;81;21117;-55
2021/04/10 06:42:34;;;;;;;30.02;17.32;;;;;;;11.26;47.78;102054.75;1770720;81;21201;-56
2021/04/10 06:45:04;;;;;;;38.98;19.35;;;;;;;11.26;48.02;102046.70;1756550;81;21156;-55
2021/04/10 06:47:33;;;;;;;32.95;18.40;;;;;;;11.31;48.31;102052.87;1776797;80;21135;-55
2021/04/10 06:50:05;;;;;;;36.70;18.10;;;;;;;11.30;48.19;102056.47;1756632;81;21192;-55
2021/04/10 06:52:39;;;;;;;34.80;16.70;;;;;;;11.22;49.17;102063.77;1770705;81;21056;-55
2021/04/10 06:55:15;;;;;;;40.23;15.40;;;;;;;11.12;49.24;102061.22;1756705;81;21469;-55
2021/04/10 06:58:04;;;;;;;23.00;12.68;;;;;;;11.07;48.76;102072.50;1738780;81;21579;-55
2021/04/10 07:00:32;;;;;;;21.52;11.12;;;;;;;11.12;48.30;102070.62;1765532;81;21152;-55
2021/04/10 07:03:01;;;;;;;18.10;11.12;;;;;;;11.11;49.59;102070.19;1765459;81;21133;-55
2021/04/10 07:05:29;;;;;;;16.90;9.25;;;;;;;11.01;51.71;102067.23;1765483;81;21157;-56
2021/04/10 07:07:57;;;;;;;19.23;9.25;;;;;;;10.86;50.67;102077.28;1765518;81;21318;-56
2021/04/10 07:10:26;;;;;;;16.40;9.50;;;;;;;10.77;48.78;102069.82;1765409;81;21077;-55
2021/04/10 07:12:53;;;;;;;13.30;7.70;;;;;;;10.74;47.39;102075.67;1765392;80;21053;-56
2021/04/10 07:15:23;;;;;;;14.35;7.45;;;;;;;10.71;46.92;102074.81;1765492;81;21081;-55
2021/04/10 07:17:52;;;;;;;13.38;8.05;;;;;;;10.75;46.56;102084.15;1765113;80;21128;-56
2021/04/10 07:20:29;;;;;;;11.68;6.65;;;;;;;10.76;46.25;102086.39;1756590;81;21710;-55
2021/04/10 07:23:13;;;;;;;11.60;6.90;;;;;;;10.80;45.36;102084.53;1776675;80;21142;-56
2021/04/10 07:25:43;;;;;;;15.32;7.28;;;;;;;10.82;45.35;102087.64;1776745;80;21027;-55
2021/04/10 07:28:28;;;;;;;10.60;6.22;;;;;;;10.77;45.94;102081.89;1756713;81;28253;-55
2021/04/10 07:31:11;;;;;;;10.85;6.00;;;;;;;10.74;45.74;102085.53;1776678;80;21043;-55
2021/04/10 07:33:45;;;;;;;12.65;5.92;;;;;;;10.73;45.70;102083.76;1756595;81;22361;-55
2021/04/10 07:36:14;;;;;;;10.63;6.35;;;;;;;10.77;45.66;102083.23;1770688;81;21237;-55
2021/04/10 07:38:44;;;;;;;13.32;6.65;;;;;;;10.80;44.95;102089.45;1756541;81;21146;-55
2021/04/10 07:41:20;;;;;;;12.13;6.33;;;;;;;10.81;44.73;102088.55;1776618;80;21139;-55
2021/04/10 07:43:49;;;;;;;10.75;6.62;;;;;;;10.77;45.89;102093.53;1756554;81;21152;-55
2021/04/10 07:46:24;;;;;;;14.35;8.63;;;;;;;10.70;47.05;102098.53;1770692;81;21213;-55
2021/04/10 07:49:00;;;;;;;;;;;;;;;10.65;48.09;102089.66;1759112;81;21121;-55
2021/04/10 07:51:29;;;;;;;12.73;7.78;;;;;;;10.57;48.14;102100.05;1770656;81;20227;-56
2021/04/10 07:53:58;;;;;;;14.45;7.85;;;;;;;10.48;48.70;102092.58;1756669;81;21069;-55
2021/04/10 07:56:28;;;;;;;14.78;8.45;;;;;;;10.44;48.70;102094.41;1768416;81;21084;-55
2021/04/10 07:59:01;;;;;;;14.20;8.45;;;;;;;10.41;48.69;102094.45;1782500;80;21358;-57
2021/04/10 08:01:29;;;;;;;14.15;7.97;;;;;;;10.41;48.75;102101.16;1783718;80;21615;-56
2021/04/10 08:03:57;;;;;;;12.33;8.38;;;;;;;10.42;49.21;102097.13;1783893;80;21096;-55
2021/04/10 08:06:27;;;;;;;13.90;7.80;;;;;;;10.39;49.30;102092.21;1734294;80;47769;-56
2021/04/10 08:08:59;;;;;;;13.60;8.40;;;;;;;10.38;49.85;102099.82;1783759;80;21084;-55
2021/04/10 08:11:36;;;;;;;12.43;8.23;;;;;;;10.39;49.99;102106.95;1783900;80;21326;-55
2021/04/10 08:14:11;;;;;;;13.43;8.65;;;;;;;10.36;50.19;102097.61;1775666;80;21131;-54
2021/04/10 08:16:42;;;;;;;14.58;8.85;;;;;;;10.28;50.42;102099.05;1774105;80;21000;-56
2021/04/10 08:19:11;;;;;;;13.98;7.80;;;;;;;10.21;51.03;102102.25;1783620;79;21126;-55
2021/04/10 08:21:45;;;;;;;17.05;8.53;;;;;;;10.18;50.50;102096.92;1785509;80;21158;-55
2021/04/10 08:24:31;;;;;;;12.98;7.92;;;;;;;10.18;50.98;102091.13;1785683;80;22220;-56
2021/04/10 08:27:12;;;;;;;14.20;8.20;;;;;;;10.22;50.74;102088.41;1785434;80;21161;-55
2021/04/10 08:29:42;;;;;;;14.03;7.40;;;;;;;10.25;51.19;102089.23;1762427;81;21157;-55
2021/04/10 08:32:11;;;;;;;11.65;7.00;;;;;;;10.19;51.56;102083.95;1776759;80;21554;-55
2021/04/10 08:34:39;;;;;;;11.12;7.25;;;;;;;10.19;50.79;102085.30;1762599;81;21195;-56
2021/04/10 08:37:08;;;;;;;11.63;7.87;;;;;;;10.21;49.36;102088.84;1776664;80;21412;-55
2021/04/10 08:39:48;;;;;;;9.93;6.78;;;;;;;10.18;49.62;102091.56;1762472;81;21104;-56
2021/04/10 08:42:16;;;;;;;13.72;7.25;;;;;;;10.15;49.51;102094.29;1776646;80;20956;-55
2021/04/10 08:44:46;;;;;;;9.30;6.37;;;;;;;10.13;49.79;102091.61;1762550;81;21081;-55
2021/04/10 08:47:13;;;;;;;12.70;6.92;;;;;;;10.08;48.39;102093.94;1776680;80;21059;-55
2021/04/10 08:49:47;;;;;;;11.15;7.00;;;;;;;10.12;48.15;102095.67;1762579;81;22737;-55
2021/04/10 08:52:31;;;;;;;9.08;5.87;;;;;;;10.15;47.87;102096.97;1776896;80;21071;-55
2021/04/10 08:55:00;;;;;;;10.05;6.25;;;;;;;10.15;47.92;102099.64;1762508;81;21160;-55
2021/04/10 08:57:41;;;;;;;9.10;6.47;;;;;;;10.14;48.53;102093.38;1767105;80;21131;-55
2021/04/10 09:00:30;;;;;;;10.58;6.47;;;;;;;10.18;49.66;102094.24;1759987;81;21145;-55
2021/04/10 09:03:00;;;;;;;10.43;6.17;;;;;;;10.20;49.21;102084.86;1765511;81;21700;-55
2021/04/10 09:05:49;;;;;;;10.53;5.72;;;;;;;10.22;47.46;102096.45;1765471;81;21553;-55
2021/04/10 09:08:24;;;;;;;11.28;6.62;;;;;;;10.15;47.55;102088.45;1760387;81;21116;-55
2021/04/10 09:11:00;;;;;;;10.68;6.00;;;;;;;10.13;48.30;102090.27;1872998;76;28084;-55
2021/04/10 09:13:31;;;;;;;8.25;6.20;;;;;;;10.11;47.62;102092.08;1840989;78;21445;-55
2021/04/10 09:16:28;;;;;;;10.53;6.42;;;;;;;10.08;46.99;102091.25;1841047;77;22205;-54
2021/04/10 09:19:20;;;;;;;12.65;5.97;;;;;;;10.11;47.83;102092.08;1831158;78;20905;-55
2021/04/10 09:21:56;;;;;;;10.40;6.40;;;;;;;10.21;46.25;102083.48;1828096;78;20936;-55
2021/04/10 09:24:45;;;;;;;12.87;6.77;;;;;;;10.30;47.23;102084.73;1828323;78;20976;-55
2021/04/10 09:27:24;;;;;;;8.78;5.78;;;;;;;10.39;46.23;102084.16;1828066;78;21111;-56
2021/04/10 09:30:01;;;;;;;10.88;6.08;;;;;;;10.45;46.37;102084.11;1828023;78;21351;-55
2021/04/10 09:32:39;;;;;;;;;;;;;;;10.42;45.40;102082.81;1830749;78;20932;-55
2021/04/10 09:35:17;;;;;;;10.15;5.97;;;;;;;10.44;45.64;102079.66;1828080;78;20123;-55
2021/04/10 09:37:51;;;;;;;12.18;5.62;;;;;;;10.40;45.25;102073.47;1827968;78;21090;-55
2021/04/10 09:40:27;;;;;;;13.28;6.22;;;;;;;10.41;45.71;102078.36;1828032;77;21059;-55
2021/04/10 09:43:04;;;;;;;10.10;5.58;;;;;;;10.42;46.00;102071.66;1826118;78;21199;-56
2021/04/10 09:45:37;;;;;;;8.20;4.90;;;;;;;10.37;44.72;102071.23;1827987;78;21137;-55
2021/04/10 09:48:13;;;;;;;10.58;5.60;;;;;;;10.31;43.93;102067.73;1827991;78;21074;-55
2021/04/10 09:50:52;;;;;;;11.95;5.90;;;;;;;10.30;45.45;102071.33;1827883;78;20995;-56
2021/04/10 09:53:24;;;;;;;11.40;5.62;;;;;;;10.27;45.81;102071.33;1828100;78;21051;-55
2021/04/10 09:56:03;;;;;;;8.85;5.53;;;;;;;10.29;45.92;102065.53;1828458;78;21688;-57
2021/04/10 09:58:42;;;;;;;9.90;5.35;;;;;;;10.32;46.55;102064.59;1840795;78;21104;-55
2021/04/10 10:01:21;;;;;;;10.75;5.92;;;;;;;10.34;45.40;102060.56;1840940;78;21108;-56
2021/04/10 10:03:50;;;;;;;11.38;6.05;;;;;;;10.29;46.68;102062.85;1840877;78;20934;-55
2021/04/10 10:06:30;;;;;;;10.08;5.97;;;;;;;10.23;44.83;102064.72;1840885;78;21057;-56
2021/04/10 10:08:59;;;;;;;7.42;5.08;;;;;;;10.20;45.67;102060.73;1840939;77;21104;-54
2021/04/10 10:11:27;;;;;;;10.82;5.28;;;;;;;10.17;45.94;102058.97;1846759;77;20925;-55
2021/04/10 10:13:56;;;;;;;7.12;4.78;;;;;;;10.18;45.65;102062.08;1846712;77;20929;-55
2021/04/10 10:16:26;;;;;;;8.93;5.12;;;;;;;10.23;44.29;102057.55;1846746;77;21143;-55
2021/04/10 10:18:56;;;;;;;8.23;5.08;;;;;;;10.28;43.62;102060.17;1835039;77;21431;-55
2021/04/10 10:21:24;;;;;;;7.37;4.58;;;;;;;10.29;43.69;102057.92;1830607;78;21251;-56
2021/04/10 10:23:57;;;;;;;9.68;4.78;;;;;;;10.27;42.79;102060.61;1830173;78;20995;-55
2021/04/10 10:26:31;;;;;;;10.23;4.65;;;;;;;10.27;43.42;102055.25;1830222;78;20936;-55
2021/04/10 10:29:02;;;;;;;7.47;4.58;;;;;;;10.32;42.72;102064.14;1830381;78;20908;-55
2021/04/10 10:31:32;;;;;;;7.50;4.45;;;;;;;10.34;43.02;102058.75;1830253;78;21043;-55
2021/04/10 10:34:06;;;;;;;8.13;4.33;;;;;;;10.37;43.23;102053.81;1830384;77;21425;-55
2021/04/10 10:36:35;;;;;;;8.00;4.22;;;;;;;10.40;42.79;102049.74;1830313;78;21581;-55
2021/04/10 10:39:08;;;;;;;7.47;4.42;;;;;;;10.41;41.15;102056.91;1830285;77;21086;-57
2021/04/10 10:41:43;;;;;;;6.22;3.40;;;;;;;10.41;41.10;102052.89;1830279;77;20908;-55
2021/04/10 10:44:11;;;;;;;12.98;4.12;;;;;;;10.43;41.26;102048.39;1830267;78;21027;-54
2021/04/10 10:46:40;;;;;;;6.47;3.95;;;;;;;10.47;41.05;102042.07;1830269;78;21456;-57
2021/04/10 10:49:10;;;;;;;6.35;3.77;;;;;;;10.52;41.24;102037.55;1830322;78;21197;-56
2021/04/10 10:51:39;;;;;;;12.37;4.17;;;;;;;10.56;40.97;102040.62;1830243;78;20924;-56
2021/04/10 10:54:08;;;;;;;8.40;3.75;;;;;;;10.59;41.08;102036.55;1830225;78;21031;-55
2021/04/10 10:56:35;;;;;;;5.65;3.77;;;;;;;10.62;39.92;102041.44;1835512;77;20969;-56
2021/04/10 10:59:06;;;;;;;6.65;3.58;;;;;;;10.56;38.61;102039.28;1846088;77;21337;-55
2021/04/10 11:01:42;;;;;;;5.90;3.65;;;;;;;10.50;39.38;102032.67;1846092;77;21567;-55
2021/04/10 11:04:28;;;;;;;5.40;3.52;;;;;;;10.48;40.11;102026.41;1846081;77;20978;-55
2021/04/10 11:06:58;;;;;;;6.97;3.27;;;;;;;10.47;38.45;102024.64;1846326;77;21096;-55
2021/04/10 11:09:28;;;;;;;7.15;3.72;;;;;;;10.47;38.51;102021.96;1845490;77;21543;-55
2021/04/10 11:12:00;;;;;;;6.28;3.70;;;;;;;10.43;38.68;102026.50;1840189;78;22049;-56
2021/04/10 11:14:29;;;;;;;6.78;3.77;;;;;;;10.45;38.36;102026.46;1840139;78;20899;-56
2021/04/10 11:16:59;;;;;;;5.55;3.37;;;;;;;10.43;37.98;102026.50;1840144;78;21040;-55
2021/04/10 11:19:33;;;;;;;6.90;3.60;;;;;;;10.43;37.66;102028.28;1827955;78;21071;-55
2021/04/10 11:22:03;;;;;;;7.30;4.12;;;;;;;10.38;36.77;102022.94;1827361;78;21078;-55
2021/04/10 11:24:37;;;;;;;6.65;4.03;;;;;;;10.38;36.57;102020.73;1827302;77;21626;-55
2021/04/10 11:27:24;;;;;;;10.18;3.65;;;;;;;10.38;36.22;102010.00;1827224;78;20928;-55
2021/04/10 11:29:55;;;;;;;5.97;3.90;;;;;;;10.42;36.12;102013.10;1827396;78;21016;-56
2021/04/10 11:32:40;;;;;;;7.50;3.87;;;;;;;10.46;36.15;102007.69;1827275;78;21119;-55
2021/04/10 11:35:22;;;;;;;8.53;4.00;;;;;;;10.46;35.69;102009.02;1827424;78;21062;-56
2021/04/10 11:37:56;;;;;;;8.20;3.92;;;;;;;10.45;35.49;102006.35;1827327;78;21189;-55
2021/04/10 11:40:30;;;;;;;8.25;4.00;;;;;;;10.41;35.67;102003.29;1827303;78;21462;-56
2021/04/10 11:43:02;;;;;;;8.15;4.10;;;;;;;10.36;35.63;102004.66;1827324;77;21185;-56